»·PEaware :: DLX805 KRDD-KPDX

DLX805 :: KRDD-KPDX

FLIGHT INFORMATION

Flight Status: Arrived
Operator: Unknown
More flights by this operator :: More flights under this callsign
Pilot: Daniel D. (10930)
Aircraft: BEECH AIRCRAFT SUPER KING AIR 350
(B350)
More flights by this aircraft type
Origin: KRDD Redding Mun
United States
Destination: KPDX Portland Intl
United States
More flights between these airports :: More routes between these airports
Route: +OED MOXEE OCITY3
File this flight plan on PilotEdge
Remarks:
Altitude:
(Current/Filed)
28,000ft
Speed:
(Current/Filed)
310kts
Departed: 08-Apr-20 11:57 AM
Arrived: 08-Apr-20 01:10 PM
Distance/Time
Traveled:
305nm/1:13
Distance/Time
To Go:
Arrived

Flight Plot

Page will automatically refresh every two minutes.

Flight plan parsing failed; only flown route is shown


Map Options




Map Legend


Flown Route
Filed Route
Departure Airport
Arrival Airport
Navaid (VOR, NDB)
Fix

Horizontal Profiles

Position Reports

Time Latitude Longitude Heading Altitude Ground
Speed
08-Apr-20 11:37 40.508474 -122.299072 359 723ft 0kts
08-Apr-20 11:38 40.508474 -122.299072 359 723ft 0kts
08-Apr-20 11:38 40.508474 -122.299072 359 723ft 0kts
08-Apr-20 11:39 40.508474 -122.299072 359 723ft 0kts
08-Apr-20 11:41 40.508474 -122.299072 359 723ft 0kts
08-Apr-20 11:41 40.508474 -122.299072 358 723ft 0kts
08-Apr-20 11:42 40.508474 -122.299072 358 723ft 0kts
08-Apr-20 11:43 40.508474 -122.299072 358 723ft 0kts
08-Apr-20 11:44 40.508474 -122.299072 358 723ft 0kts
08-Apr-20 11:45 40.508474 -122.299072 358 723ft 0kts
08-Apr-20 11:46 40.508474 -122.299072 358 723ft 0kts
08-Apr-20 11:47 40.508474 -122.299072 358 723ft 0kts
08-Apr-20 11:48 40.508474 -122.299072 358 723ft 0kts
08-Apr-20 11:49 40.508070 -122.298651 176 723ft 0kts
08-Apr-20 11:50 40.507921 -122.297809 44 723ft 12kts
08-Apr-20 11:51 40.504845 -122.296327 180 723ft 18kts
08-Apr-20 11:52 40.502039 -122.296132 133 723ft 0kts
08-Apr-20 11:53 40.502039 -122.296132 133 723ft 0kts
08-Apr-20 11:54 40.502038 -122.296131 132 723ft 0kts
08-Apr-20 11:55 40.501515 -122.295481 134 723ft 20kts
08-Apr-20 11:56 40.526048 -122.295643 350 1673ft 147kts
08-Apr-20 11:57 40.564402 -122.316701 348 4079ft 157kts
08-Apr-20 11:58 40.611398 -122.327487 353 5951ft 181kts
08-Apr-20 11:59 40.661204 -122.342178 352 7903ft 187kts
08-Apr-20 12:00 40.712104 -122.357745 352 9858ft 189kts
08-Apr-20 12:01 40.763219 -122.373378 352 11704ft 189kts
08-Apr-20 12:02 40.814374 -122.389070 353 13409ft 189kts
08-Apr-20 12:03 40.865120 -122.404645 354 14998ft 187kts
08-Apr-20 12:04 40.915651 -122.420183 355 16473ft 186kts
08-Apr-20 12:05 40.965953 -122.435648 356 17805ft 187kts
08-Apr-20 12:06 41.017001 -122.451340 357 18986ft 190kts
08-Apr-20 12:07 41.069053 -122.467411 356 20071ft 194kts
08-Apr-20 12:08 41.120957 -122.483442 357 21075ft 197kts
08-Apr-20 12:09 41.174555 -122.500014 357 22039ft 200kts
08-Apr-20 12:10 41.229465 -122.517023 357 23079ft 206kts
08-Apr-20 12:11 41.285058 -122.534336 357 24467ft 208kts
08-Apr-20 12:12 41.341873 -122.552004 357 25696ft 212kts
08-Apr-20 12:13 41.400082 -122.570147 356 26800ft 216kts
08-Apr-20 12:14 41.459349 -122.588652 357 27689ft 221kts
08-Apr-20 12:15 41.520637 -122.607656 356 28174ft 239kts
08-Apr-20 12:16 41.589595 -122.628921 355 28166ft 268kts
08-Apr-20 12:17 41.664709 -122.652447 354 28159ft 286kts
08-Apr-20 12:18 41.743545 -122.677266 354 28153ft 296kts
08-Apr-20 12:19 41.824410 -122.702783 354 28152ft 301kts
08-Apr-20 12:20 41.906137 -122.728632 354 28151ft 304kts
08-Apr-20 12:21 41.988745 -122.754837 353 28161ft 306kts
08-Apr-20 12:22 42.071761 -122.781253 353 28175ft 307kts
08-Apr-20 12:23 42.154315 -122.807588 353 28184ft 308kts
08-Apr-20 12:24 42.237444 -122.834177 353 28182ft 309kts
08-Apr-20 12:25 42.321159 -122.861045 353 28182ft 309kts
08-Apr-20 12:26 42.405021 -122.888032 353 28181ft 310kts
08-Apr-20 12:27 42.488849 -122.910412 4 28181ft 302kts
08-Apr-20 12:28 42.572020 -122.903976 9 28179ft 299kts
08-Apr-20 12:29 42.655460 -122.895652 9 28193ft 299kts
08-Apr-20 12:30 42.738416 -122.887825 9 28207ft 299kts
08-Apr-20 12:31 42.821762 -122.879988 9 28207ft 300kts
08-Apr-20 12:32 42.904872 -122.872151 8 28206ft 300kts
08-Apr-20 12:33 42.988136 -122.864283 8 28207ft 300kts
08-Apr-20 12:34 43.071420 -122.856384 8 28210ft 300kts
08-Apr-20 12:35 43.153745 -122.848564 8 28234ft 300kts
08-Apr-20 12:36 43.237292 -122.840593 8 28246ft 301kts
08-Apr-20 12:37 43.320863 -122.832602 8 28246ft 302kts
08-Apr-20 12:38 43.404511 -122.824575 8 28245ft 302kts
08-Apr-20 12:39 43.488288 -122.816522 8 28245ft 302kts
08-Apr-20 12:40 43.572347 -122.808418 8 28245ft 302kts
08-Apr-20 12:41 43.656359 -122.800304 8 28243ft 302kts
08-Apr-20 12:42 43.740159 -122.792184 8 28236ft 303kts
08-Apr-20 12:43 43.824081 -122.784028 8 28230ft 303kts
08-Apr-20 12:44 43.908300 -122.775818 8 28223ft 303kts
08-Apr-20 12:45 43.992304 -122.767608 8 28214ft 303kts
08-Apr-20 12:46 44.076157 -122.759370 7 28190ft 303kts
08-Apr-20 12:47 44.163802 -122.750523 6 26763ft 324kts
08-Apr-20 12:48 44.253531 -122.742099 6 25279ft 325kts
08-Apr-20 12:49 44.343044 -122.733329 6 24228ft 310kts
08-Apr-20 12:50 44.428351 -122.724985 6 24236ft 306kts
08-Apr-20 12:51 44.513227 -122.716567 6 24236ft 305kts
08-Apr-20 12:52 44.599742 -122.707857 5 23342ft 323kts
08-Apr-20 12:53 44.690921 -122.698652 5 21848ft 330kts
08-Apr-20 12:54 44.782477 -122.689391 5 20344ft 330kts
08-Apr-20 12:55 44.870505 -122.680527 5 18779ft 289kts
08-Apr-20 12:56 44.947534 -122.672932 5 17232ft 271kts
08-Apr-20 12:57 45.022151 -122.665404 5 15715ft 272kts
08-Apr-20 12:58 45.098814 -122.657464 5 14212ft 279kts
08-Apr-20 12:59 45.174947 -122.641617 34 12701ft 279kts
08-Apr-20 13:00 45.238794 -122.578974 34 11068ft 279kts
08-Apr-20 13:01 45.303546 -122.516882 34 9367ft 282kts
08-Apr-20 13:02 45.364212 -122.460219 34 7613ft 245kts
08-Apr-20 13:03 45.419605 -122.408635 34 5837ft 224kts
08-Apr-20 13:04 45.473003 -122.368566 4 4490ft 226kts
08-Apr-20 13:05 45.521709 -122.411284 310 2968ft 203kts
08-Apr-20 13:06 45.546824 -122.472312 300 1621ft 155kts
08-Apr-20 13:07 45.565815 -122.521471 302 757ft 127kts
08-Apr-20 13:08 45.581314 -122.560969 294 146ft 102kts
08-Apr-20 13:09 45.588497 -122.582297 207 27ft 2kts
08-Apr-20 13:10 45.587618 -122.584396 127 27ft 5kts
08-Apr-20 13:11 45.587612 -122.584381 121 27ft 0kts

Navigation Log

Ident Type
Flight plan parsing failed, navigation log unavailable